Time;durP1;ratioP1;P1;durP2;ratioP2;P2;SDS_P1;SDS_P2;PMS_P1;PMS_P2;Temp;Humidity;BMP_temperature;BMP_pressure;BME280_temperature;BME280_humidity;BME280_pressure;Samples;Min_cycle;Max_cycle;Signal;HPM_P1;HPM_P2
2022/11/13 00:01:55;;;;;;;;;;;21.60;44.30;;;;;;484169;246;1215;-50
2022/11/13 00:03:57;;;;;;;;;;;21.60;44.20;;;;;;484151;246;1265;-50
2022/11/13 00:05:58;;;;;;;;;;;21.70;44.30;;;;;;484321;246;1229;-50
2022/11/13 00:08:00;;;;;;;;;;;21.60;44.20;;;;;;484561;246;1207;-49
2022/11/13 00:10:00;;;;;;;;;;;21.60;44.20;;;;;;484180;246;2550;-49
2022/11/13 00:12:02;;;;;;;;;;;21.60;44.20;;;;;;484227;246;1455;-50
2022/11/13 00:14:03;;;;;;;;;;;21.60;44.30;;;;;;484462;246;1276;-50
2022/11/13 00:16:04;;;;;;;;;;;21.60;44.30;;;;;;484462;246;2192;-49
2022/11/13 00:18:06;;;;;;;;;;;21.60;44.30;;;;;;484606;246;1408;-50
2022/11/13 00:20:07;;;;;;;;;;;21.60;44.40;;;;;;484541;246;1377;-50
2022/11/13 00:22:08;;;;;;;;;;;21.60;44.40;;;;;;484187;246;1756;-49
2022/11/13 00:24:10;;;;;;;;;;;21.60;44.40;;;;;;484195;246;1210;-49
2022/11/13 00:26:11;;;;;;;;;;;21.60;44.30;;;;;;484647;246;1191;-49
2022/11/13 00:28:12;;;;;;;;;;;21.60;44.30;;;;;;484418;245;1266;-49
2022/11/13 00:30:14;;;;;;;;;;;21.60;44.30;;;;;;484628;246;1247;-49
2022/11/13 00:32:15;;;;;;;;;;;21.60;44.30;;;;;;484473;246;1259;-49
2022/11/13 00:34:16;;;;;;;;;;;21.60;44.20;;;;;;484236;246;1245;-49
2022/11/13 00:36:18;;;;;;;;;;;21.60;44.20;;;;;;484266;246;2172;-49
2022/11/13 00:38:19;;;;;;;;;;;21.60;44.30;;;;;;484181;246;1393;-50
2022/11/13 00:40:20;;;;;;;;;;;21.60;44.30;;;;;;484189;246;1302;-49
2022/11/13 00:42:22;;;;;;;;;;;21.60;44.20;;;;;;484251;246;1289;-49
2022/11/13 00:44:23;;;;;;;;;;;21.60;44.20;;;;;;484633;246;1211;-50
2022/11/13 00:46:24;;;;;;;;;;;21.60;44.20;;;;;;484636;246;1278;-49
2022/11/13 00:48:26;;;;;;;;;;;21.60;44.20;;;;;;484696;246;1232;-50
2022/11/13 00:50:27;;;;;;;;;;;21.60;44.20;;;;;;484625;246;1211;-50
2022/11/13 00:52:28;;;;;;;;;;;21.70;44.20;;;;;;484409;246;1244;-49
2022/11/13 00:54:30;;;;;;;;;;;21.70;44.30;;;;;;484703;246;1199;-49
2022/11/13 00:56:31;;;;;;;;;;;21.60;44.20;;;;;;484699;246;2171;-49
2022/11/13 00:58:32;;;;;;;;;;;21.60;44.20;;;;;;484691;246;1196;-49
2022/11/13 01:00:33;;;;;;;;;;;21.60;44.30;;;;;;484446;246;1115;-49
2022/11/13 01:02:35;;;;;;;;;;;21.60;44.20;;;;;;484708;246;1131;-49
2022/11/13 01:04:36;;;;;;;;;;;21.60;44.20;;;;;;484254;246;1303;-49
2022/11/13 01:06:37;;;;;;;;;;;21.60;44.20;;;;;;484151;246;1267;-49
2022/11/13 01:08:39;;;;;;;;;;;21.60;44.20;;;;;;484194;246;1343;-49
2022/11/13 01:10:40;;;;;;;;;;;21.60;44.20;;;;;;484491;246;1254;-49
2022/11/13 01:12:41;;;;;;;;;;;21.60;44.30;;;;;;484294;246;1345;-50
2022/11/13 01:14:43;;;;;;;;;;;21.60;44.20;;;;;;484401;246;1370;-49
2022/11/13 01:16:44;;;;;;;;;;;21.60;44.20;;;;;;484624;246;2164;-50
2022/11/13 01:18:45;;;;;;;;;;;21.60;44.20;;;;;;484577;246;1255;-49
2022/11/13 01:20:47;;;;;;;;;;;21.60;44.10;;;;;;484251;246;1204;-50
2022/11/13 01:22:48;;;;;;;;;;;21.60;44.20;;;;;;484190;246;1379;-49
2022/11/13 01:24:49;;;;;;;;;;;21.60;44.10;;;;;;484625;246;1315;-50
2022/11/13 01:26:51;;;;;;;;;;;21.70;44.20;;;;;;484646;246;1216;-49
2022/11/13 01:28:52;;;;;;;;;;;21.70;44.20;;;;;;484200;246;1225;-49
2022/11/13 01:30:53;;;;;;;;;;;21.70;44.10;;;;;;484248;246;1280;-49
2022/11/13 01:32:55;;;;;;;;;;;21.70;44.10;;;;;;484675;246;1239;-49
2022/11/13 01:34:56;;;;;;;;;;;21.70;44.10;;;;;;484391;246;1188;-49
2022/11/13 01:36:57;;;;;;;;;;;21.60;44.10;;;;;;484178;246;2180;-49
2022/11/13 01:38:59;;;;;;;;;;;21.60;44.20;;;;;;484720;246;1110;-49
2022/11/13 01:41:00;;;;;;;;;;;21.60;44.20;;;;;;484364;246;1162;-49
2022/11/13 01:43:01;;;;;;;;;;;21.60;44.10;;;;;;484657;246;1124;-50
2022/11/13 01:45:03;;;;;;;;;;;21.70;44.10;;;;;;484257;246;1130;-49
2022/11/13 01:47:04;;;;;;;;;;;21.70;44.10;;;;;;484230;246;1212;-49
2022/11/13 01:49:05;;;;;;;;;;;21.70;44.10;;;;;;484233;246;1244;-50
2022/11/13 01:51:07;;;;;;;;;;;21.70;44.20;;;;;;484602;246;1213;-49
2022/11/13 01:53:08;;;;;;;;;;;21.70;44.10;;;;;;484668;246;1229;-50
2022/11/13 01:55:09;;;;;;;;;;;21.70;44.10;;;;;;484681;246;1341;-49
2022/11/13 01:57:11;;;;;;;;;;;21.60;44.10;;;;;;484684;246;2164;-49
2022/11/13 01:59:12;;;;;;;;;;;21.60;44.20;;;;;;484470;246;1281;-49
2022/11/13 02:01:13;;;;;;;;;;;21.60;44.30;;;;;;484226;246;1253;-50
2022/11/13 02:03:15;;;;;;;;;;;21.50;44.30;;;;;;484569;246;1403;-49
2022/11/13 02:05:16;;;;;;;;;;;21.50;44.40;;;;;;484673;246;1255;-48
2022/11/13 02:07:17;;;;;;;;;;;21.50;44.40;;;;;;484386;246;1200;-49
2022/11/13 02:09:18;;;;;;;;;;;21.50;44.30;;;;;;484681;246;1127;-49
2022/11/13 02:11:20;;;;;;;;;;;21.50;44.30;;;;;;484688;246;1173;-49
2022/11/13 02:13:21;;;;;;;;;;;21.50;44.40;;;;;;484645;246;1405;-49
2022/11/13 02:15:23;;;;;;;;;;;21.50;44.40;;;;;;484681;246;1302;-49
2022/11/13 02:17:24;;;;;;;;;;;21.50;44.30;;;;;;484623;246;2179;-49
2022/11/13 02:19:25;;;;;;;;;;;21.50;44.30;;;;;;484202;246;1260;-49
2022/11/13 02:21:27;;;;;;;;;;;21.50;44.40;;;;;;484592;246;1269;-49
2022/11/13 02:23:28;;;;;;;;;;;21.60;44.40;;;;;;484675;246;1170;-49
2022/11/13 02:25:29;;;;;;;;;;;21.50;44.30;;;;;;484558;246;1206;-49
2022/11/13 02:27:31;;;;;;;;;;;21.50;44.30;;;;;;484681;246;1229;-49
2022/11/13 02:29:32;;;;;;;;;;;21.50;44.30;;;;;;484613;246;1294;-50
2022/11/13 02:31:33;;;;;;;;;;;21.50;44.30;;;;;;484418;246;1191;-49
2022/11/13 02:33:35;;;;;;;;;;;21.60;44.20;;;;;;484650;246;1283;-49
2022/11/13 02:35:36;;;;;;;;;;;21.80;43.90;;;;;;484620;246;1302;-49
2022/11/13 02:37:37;;;;;;;;;;;21.80;43.80;;;;;;484326;246;2167;-49
2022/11/13 02:39:39;;;;;;;;;;;21.80;43.80;;;;;;484663;246;1264;-49
2022/11/13 02:41:40;;;;;;;;;;;21.70;43.90;;;;;;484681;246;1224;-49
2022/11/13 02:43:41;;;;;;;;;;;21.70;44.00;;;;;;484376;246;1235;-50
2022/11/13 02:45:43;;;;;;;;;;;21.70;44.10;;;;;;484523;246;1446;-50
2022/11/13 02:47:44;;;;;;;;;;;21.60;44.10;;;;;;484423;246;1394;-50
2022/11/13 02:49:46;;;;;;;;;;;21.60;44.10;;;;;;484199;246;1177;-49
2022/11/13 02:51:47;;;;;;;;;;;21.60;44.10;;;;;;484215;246;1532;-49
2022/11/13 02:53:48;;;;;;;;;;;21.60;44.10;;;;;;484202;246;1284;-50
2022/11/13 02:55:50;;;;;;;;;;;21.60;44.20;;;;;;484473;246;1261;-49
2022/11/13 02:57:51;;;;;;;;;;;21.60;44.20;;;;;;484330;246;2175;-49
2022/11/13 02:59:52;;;;;;;;;;;21.60;44.20;;;;;;484469;246;1288;-49
2022/11/13 03:01:54;;;;;;;;;;;21.60;44.10;;;;;;484227;246;1168;-50
2022/11/13 03:03:55;;;;;;;;;;;21.60;44.10;;;;;;484606;246;1299;-49
2022/11/13 03:05:56;;;;;;;;;;;21.60;44.20;;;;;;484463;246;1214;-49
2022/11/13 03:07:57;;;;;;;;;;;21.60;44.20;;;;;;484347;246;1242;-49
2022/11/13 03:09:59;;;;;;;;;;;21.60;44.10;;;;;;484639;246;1215;-50
2022/11/13 03:12:00;;;;;;;;;;;21.60;44.20;;;;;;484241;246;1339;-50
2022/11/13 03:14:01;;;;;;;;;;;21.60;44.30;;;;;;484637;246;1312;-49
2022/11/13 03:16:03;;;;;;;;;;;21.60;44.20;;;;;;484665;246;1310;-49
2022/11/13 03:18:04;;;;;;;;;;;21.60;44.20;;;;;;484297;246;2188;-49
2022/11/13 03:20:05;;;;;;;;;;;21.60;44.20;;;;;;484222;246;1193;-49
2022/11/13 03:22:07;;;;;;;;;;;21.50;44.20;;;;;;484554;246;1209;-49
2022/11/13 03:24:08;;;;;;;;;;;21.60;44.20;;;;;;484434;246;1324;-49
2022/11/13 03:26:09;;;;;;;;;;;21.60;44.20;;;;;;484628;246;1215;-49
2022/11/13 03:28:11;;;;;;;;;;;21.60;44.20;;;;;;484445;246;1266;-50
2022/11/13 03:30:12;;;;;;;;;;;21.60;44.20;;;;;;484480;246;1249;-49
2022/11/13 03:32:13;;;;;;;;;;;21.60;44.10;;;;;;484206;246;1287;-50
2022/11/13 03:34:15;;;;;;;;;;;21.60;44.10;;;;;;484179;246;1285;-49
2022/11/13 03:36:16;;;;;;;;;;;21.60;44.10;;;;;;484668;246;1381;-49
2022/11/13 03:38:17;;;;;;;;;;;21.60;44.10;;;;;;484282;246;2121;-49
2022/11/13 03:40:19;;;;;;;;;;;21.60;44.10;;;;;;484590;246;1293;-49
2022/11/13 03:42:20;;;;;;;;;;;21.60;44.10;;;;;;484221;246;1190;-50
2022/11/13 03:44:21;;;;;;;;;;;21.60;44.10;;;;;;484609;246;1299;-50
2022/11/13 03:46:23;;;;;;;;;;;21.60;44.10;;;;;;484646;246;1267;-49
2022/11/13 03:48:24;;;;;;;;;;;21.60;44.20;;;;;;484248;246;1242;-49
2022/11/13 03:50:25;;;;;;;;;;;21.60;44.20;;;;;;484380;246;1293;-49
2022/11/13 03:52:27;;;;;;;;;;;21.60;44.10;;;;;;484583;246;1092;-49
2022/11/13 03:54:28;;;;;;;;;;;21.60;44.10;;;;;;484692;246;1094;-49
2022/11/13 03:56:29;;;;;;;;;;;21.60;44.10;;;;;;484693;246;1029;-49
2022/11/13 03:58:30;;;;;;;;;;;21.60;44.10;;;;;;484514;246;2252;-49
2022/11/13 04:00:32;;;;;;;;;;;21.60;44.10;;;;;;484683;246;1099;-49
2022/11/13 04:02:33;;;;;;;;;;;21.60;44.10;;;;;;484555;246;1067;-49
2022/11/13 04:04:35;;;;;;;;;;;21.60;44.10;;;;;;484677;246;1112;-49
2022/11/13 04:06:36;;;;;;;;;;;21.60;44.10;;;;;;484687;246;1096;-50
2022/11/13 04:08:37;;;;;;;;;;;21.60;44.10;;;;;;484231;246;1211;-49
2022/11/13 04:10:39;;;;;;;;;;;21.60;44.10;;;;;;484330;246;1118;-49
2022/11/13 04:12:40;;;;;;;;;;;21.60;44.10;;;;;;484631;246;1084;-50
2022/11/13 04:14:41;;;;;;;;;;;21.60;44.10;;;;;;484199;246;1404;-49
2022/11/13 04:16:43;;;;;;;;;;;21.60;44.10;;;;;;484635;246;2145;-49
2022/11/13 04:18:44;;;;;;;;;;;21.70;44.00;;;;;;484235;246;1167;-49
2022/11/13 04:20:45;;;;;;;;;;;21.60;43.90;;;;;;484618;246;1204;-49
2022/11/13 04:22:47;;;;;;;;;;;21.60;44.00;;;;;;484268;246;1236;-50
2022/11/13 04:24:48;;;;;;;;;;;21.60;44.00;;;;;;484414;246;1249;-49
2022/11/13 04:26:49;;;;;;;;;;;21.60;44.00;;;;;;484528;246;1246;-50
2022/11/13 04:28:51;;;;;;;;;;;21.60;44.00;;;;;;484604;246;1248;-49
2022/11/13 04:30:52;;;;;;;;;;;21.60;44.10;;;;;;484157;246;1370;-50
2022/11/13 04:32:53;;;;;;;;;;;21.60;44.20;;;;;;484435;246;1319;-49
2022/11/13 04:34:55;;;;;;;;;;;21.50;44.10;;;;;;484477;246;1296;-50
2022/11/13 04:36:56;;;;;;;;;;;21.60;44.20;;;;;;484637;246;2151;-50
2022/11/13 04:38:57;;;;;;;;;;;21.50;44.20;;;;;;484234;246;1240;-49
2022/11/13 04:43:18;;;;;;;;;;;21.50;44.30;;;;;;484158;246;1623;-49
2022/11/13 04:45:19;;;;;;;;;;;21.50;44.40;;;;;;484294;246;1210;-49
2022/11/13 04:47:20;;;;;;;;;;;21.40;44.30;;;;;;484641;246;1233;-49
2022/11/13 04:49:22;;;;;;;;;;;21.50;44.40;;;;;;484331;246;1250;-49
2022/11/13 04:51:23;;;;;;;;;;;21.50;44.30;;;;;;484668;246;1312;-49
2022/11/13 04:53:24;;;;;;;;;;;21.50;44.30;;;;;;484207;246;1306;-48
2022/11/13 04:55:26;;;;;;;;;;;21.40;44.30;;;;;;484350;246;1332;-49
2022/11/13 04:57:27;;;;;;;;;;;21.40;44.40;;;;;;484659;246;2151;-49
2022/11/13 04:59:28;;;;;;;;;;;21.40;44.30;;;;;;484626;246;1409;-49
2022/11/13 05:01:30;;;;;;;;;;;21.50;44.30;;;;;;484649;246;1186;-49
2022/11/13 05:03:31;;;;;;;;;;;21.50;44.30;;;;;;484653;246;1317;-49
2022/11/13 05:05:32;;;;;;;;;;;21.50;44.30;;;;;;484644;246;1251;-50
2022/11/13 05:07:34;;;;;;;;;;;21.70;44.10;;;;;;484200;246;1246;-50
2022/11/13 05:09:35;;;;;;;;;;;21.80;43.70;;;;;;484206;246;1659;-49
2022/11/13 05:11:36;;;;;;;;;;;21.80;43.60;;;;;;484624;246;1253;-49
2022/11/13 05:13:38;;;;;;;;;;;21.80;43.60;;;;;;484645;246;1962;-50
2022/11/13 05:15:39;;;;;;;;;;;21.70;43.70;;;;;;484425;246;1277;-50
2022/11/13 05:17:40;;;;;;;;;;;21.70;43.80;;;;;;484174;246;2192;-50
2022/11/13 05:19:42;;;;;;;;;;;21.70;43.90;;;;;;484279;246;1290;-49
2022/11/13 05:21:43;;;;;;;;;;;21.60;43.90;;;;;;484658;246;1278;-49
2022/11/13 05:23:44;;;;;;;;;;;21.60;44.00;;;;;;484262;246;1254;-49
2022/11/13 05:25:46;;;;;;;;;;;21.60;44.00;;;;;;484491;246;1308;-49
2022/11/13 05:27:47;;;;;;;;;;;21.60;44.00;;;;;;484278;246;1281;-49
2022/11/13 05:29:48;;;;;;;;;;;21.60;44.10;;;;;;484623;246;1301;-49
2022/11/13 05:31:49;;;;;;;;;;;21.60;44.00;;;;;;484643;246;1236;-50
2022/11/13 05:33:51;;;;;;;;;;;21.50;44.10;;;;;;484340;246;1247;-49
2022/11/13 05:35:52;;;;;;;;;;;21.50;44.10;;;;;;484450;246;1385;-49
2022/11/13 05:37:54;;;;;;;;;;;21.50;44.10;;;;;;484174;246;2200;-49
2022/11/13 05:39:55;;;;;;;;;;;21.60;44.20;;;;;;484222;246;1207;-49
2022/11/13 05:41:56;;;;;;;;;;;21.60;44.10;;;;;;484506;246;1267;-49
2022/11/13 05:43:57;;;;;;;;;;;21.60;44.00;;;;;;484175;246;1252;-50
2022/11/13 05:45:59;;;;;;;;;;;21.60;44.10;;;;;;484574;246;1196;-50
2022/11/13 05:48:00;;;;;;;;;;;21.60;44.00;;;;;;484653;246;1213;-50
2022/11/13 05:50:01;;;;;;;;;;;21.60;44.10;;;;;;484477;246;1237;-50
2022/11/13 05:52:03;;;;;;;;;;;21.50;44.10;;;;;;484213;246;1235;-50
2022/11/13 05:54:05;;;;;;;;;;;21.60;44.20;;;;;;484474;246;1342;-49
2022/11/13 05:56:05;;;;;;;;;;;21.60;44.10;;;;;;484192;246;1213;-49
2022/11/13 05:58:07;;;;;;;;;;;21.60;44.10;;;;;;484156;246;2181;-49
2022/11/13 06:00:08;;;;;;;;;;;21.60;44.10;;;;;;484638;246;1733;-49
2022/11/13 06:02:09;;;;;;;;;;;21.60;44.10;;;;;;484609;246;1251;-49
2022/11/13 06:04:11;;;;;;;;;;;21.60;44.10;;;;;;484614;246;1526;-49
2022/11/13 06:06:12;;;;;;;;;;;21.60;44.00;;;;;;484408;246;1571;-49
2022/11/13 06:08:13;;;;;;;;;;;21.60;44.00;;;;;;484128;246;1383;-49
2022/11/13 06:10:15;;;;;;;;;;;21.50;44.00;;;;;;484145;246;1393;-49
2022/11/13 06:12:16;;;;;;;;;;;21.60;44.10;;;;;;484482;246;1625;-49
2022/11/13 06:14:17;;;;;;;;;;;21.50;44.10;;;;;;484599;246;1264;-49
2022/11/13 06:16:19;;;;;;;;;;;21.60;44.10;;;;;;484452;246;1302;-49
2022/11/13 06:18:20;;;;;;;;;;;21.60;44.10;;;;;;484222;246;2165;-49
2022/11/13 06:20:21;;;;;;;;;;;21.60;44.00;;;;;;484167;246;1255;-49
2022/11/13 06:22:23;;;;;;;;;;;21.60;44.10;;;;;;484228;246;1862;-50
2022/11/13 06:24:24;;;;;;;;;;;21.60;44.10;;;;;;484459;246;1338;-49
2022/11/13 06:26:25;;;;;;;;;;;21.50;44.10;;;;;;484456;246;1414;-49
2022/11/13 06:28:27;;;;;;;;;;;21.60;44.00;;;;;;484658;246;1215;-50
2022/11/13 06:30:28;;;;;;;;;;;21.60;44.00;;;;;;484259;246;1131;-49
2022/11/13 06:32:29;;;;;;;;;;;21.60;44.00;;;;;;484676;246;1099;-49
2022/11/13 06:34:31;;;;;;;;;;;21.60;44.00;;;;;;484694;246;1048;-49
2022/11/13 06:36:32;;;;;;;;;;;21.60;44.00;;;;;;484693;246;1143;-49
2022/11/13 06:38:33;;;;;;;;;;;21.60;44.00;;;;;;484668;246;2163;-49
2022/11/13 06:40:35;;;;;;;;;;;21.60;44.00;;;;;;484313;246;1192;-50
2022/11/13 06:42:36;;;;;;;;;;;21.60;43.90;;;;;;484359;246;1074;-50
2022/11/13 06:44:37;;;;;;;;;;;21.60;43.90;;;;;;484670;246;1219;-50
2022/11/13 06:46:39;;;;;;;;;;;21.60;43.90;;;;;;484227;246;1254;-50
2022/11/13 06:48:40;;;;;;;;;;;21.60;43.80;;;;;;484676;246;1252;-49
2022/11/13 06:50:41;;;;;;;;;;;21.60;43.80;;;;;;484189;246;1331;-49
2022/11/13 06:52:42;;;;;;;;;;;21.60;43.90;;;;;;484648;246;1292;-49
2022/11/13 06:54:44;;;;;;;;;;;21.50;44.00;;;;;;484432;246;1250;-49
2022/11/13 06:56:45;;;;;;;;;;;21.60;44.00;;;;;;484304;246;1238;-49
2022/11/13 06:58:46;;;;;;;;;;;21.60;44.00;;;;;;484583;246;2141;-50
2022/11/13 07:00:48;;;;;;;;;;;21.50;44.00;;;;;;484319;246;1261;-50
2022/11/13 07:02:49;;;;;;;;;;;21.50;44.00;;;;;;484517;242;1637;-49
2022/11/13 07:04:50;;;;;;;;;;;21.50;44.10;;;;;;484160;246;1249;-49
2022/11/13 07:06:52;;;;;;;;;;;21.70;43.90;;;;;;484623;246;1345;-50
2022/11/13 07:08:53;;;;;;;;;;;21.80;43.60;;;;;;484623;246;1314;-49
2022/11/13 07:10:54;;;;;;;;;;;21.80;43.50;;;;;;484221;246;1284;-49
2022/11/13 07:12:56;;;;;;;;;;;21.70;43.60;;;;;;484385;246;1235;-49
2022/11/13 07:14:57;;;;;;;;;;;21.70;43.80;;;;;;484208;246;1173;-49
2022/11/13 07:16:58;;;;;;;;;;;21.60;43.90;;;;;;484192;246;1274;-49
2022/11/13 07:19:00;;;;;;;;;;;21.50;44.00;;;;;;484336;246;2172;-50
2022/11/13 07:21:01;;;;;;;;;;;21.60;43.90;;;;;;484176;246;1244;-50
2022/11/13 07:23:02;;;;;;;;;;;21.50;44.00;;;;;;484523;246;1238;-49
2022/11/13 07:25:04;;;;;;;;;;;21.50;44.00;;;;;;484418;246;1510;-49
2022/11/13 07:27:05;;;;;;;;;;;21.50;44.00;;;;;;484598;246;1185;-49
2022/11/13 07:29:06;;;;;;;;;;;21.50;44.10;;;;;;484362;246;1541;-48
2022/11/13 07:31:08;;;;;;;;;;;21.50;44.10;;;;;;484584;246;1404;-50
2022/11/13 07:33:09;;;;;;;;;;;21.50;44.10;;;;;;484200;246;1341;-48
2022/11/13 07:35:10;;;;;;;;;;;21.50;44.10;;;;;;484162;246;1320;-49
2022/11/13 07:37:12;;;;;;;;;;;21.50;44.10;;;;;;484193;246;1523;-49
2022/11/13 07:39:13;;;;;;;;;;;21.50;44.10;;;;;;484186;246;2204;-49
2022/11/13 07:41:14;;;;;;;;;;;21.50;44.20;;;;;;484204;246;1224;-49
2022/11/13 07:43:16;;;;;;;;;;;21.50;44.20;;;;;;484166;246;1273;-49
2022/11/13 07:45:17;;;;;;;;;;;21.50;44.10;;;;;;484641;246;1216;-49
2022/11/13 07:47:18;;;;;;;;;;;21.50;44.20;;;;;;484220;246;1205;-49
2022/11/13 07:49:20;;;;;;;;;;;21.40;44.10;;;;;;484583;246;1231;-49
2022/11/13 07:51:21;;;;;;;;;;;21.40;44.10;;;;;;484622;246;1234;-50
2022/11/13 07:53:22;;;;;;;;;;;21.50;44.20;;;;;;484642;246;1235;-50
2022/11/13 07:55:24;;;;;;;;;;;21.50;44.10;;;;;;484396;246;1323;-50
2022/11/13 07:57:26;;;;;;;;;;;21.50;44.10;;;;;;484665;246;1358;-49
2022/11/13 07:59:26;;;;;;;;;;;21.50;44.10;;;;;;484585;246;2164;-50
2022/11/13 08:01:28;;;;;;;;;;;21.50;44.10;;;;;;484661;246;1198;-49
2022/11/13 08:03:29;;;;;;;;;;;21.50;44.10;;;;;;484652;246;1301;-50
2022/11/13 08:05:30;;;;;;;;;;;21.50;44.10;;;;;;484642;246;1545;-49
2022/11/13 08:07:31;;;;;;;;;;;21.50;44.10;;;;;;484544;246;1200;-49
2022/11/13 08:09:33;;;;;;;;;;;21.50;44.10;;;;;;484661;246;1178;-50
2022/11/13 08:11:34;;;;;;;;;;;21.50;44.00;;;;;;484222;246;1284;-49
2022/11/13 08:13:35;;;;;;;;;;;21.50;44.00;;;;;;484629;246;1195;-49
2022/11/13 08:15:37;;;;;;;;;;;21.50;44.00;;;;;;484201;246;1211;-49
2022/11/13 08:17:38;;;;;;;;;;;21.50;44.10;;;;;;484540;246;1307;-49
2022/11/13 08:19:39;;;;;;;;;;;21.50;44.10;;;;;;484184;246;2208;-49
2022/11/13 08:21:41;;;;;;;;;;;21.50;44.10;;;;;;484639;246;1260;-49
2022/11/13 08:23:42;;;;;;;;;;;21.50;44.00;;;;;;484639;246;1528;-49
2022/11/13 08:25:43;;;;;;;;;;;21.50;44.10;;;;;;484230;246;1290;-49
2022/11/13 08:27:45;;;;;;;;;;;21.50;44.00;;;;;;484656;246;1241;-49
2022/11/13 08:29:46;;;;;;;;;;;21.50;44.00;;;;;;484168;246;1317;-50
2022/11/13 08:31:47;;;;;;;;;;;21.50;44.00;;;;;;484571;246;1321;-49
2022/11/13 08:33:49;;;;;;;;;;;21.50;44.00;;;;;;484206;246;1297;-50
2022/11/13 08:35:50;;;;;;;;;;;21.50;44.00;;;;;;484526;246;1281;-49
2022/11/13 08:37:51;;;;;;;;;;;21.50;43.90;;;;;;484625;246;1196;-50
2022/11/13 08:39:53;;;;;;;;;;;21.50;44.00;;;;;;484242;246;2199;-48
2022/11/13 08:41:54;;;;;;;;;;;21.50;44.00;;;;;;484218;246;1186;-50
2022/11/13 08:43:55;;;;;;;;;;;21.60;43.90;;;;;;484163;246;1350;-50
2022/11/13 08:45:57;;;;;;;;;;;21.50;43.80;;;;;;484643;246;1185;-49
2022/11/13 08:47:58;;;;;;;;;;;21.60;43.90;;;;;;484508;246;1177;-49
2022/11/13 08:49:59;;;;;;;;;;;21.60;43.90;;;;;;484613;246;1682;-49
2022/11/13 08:52:01;;;;;;;;;;;21.60;43.90;;;;;;484625;246;1428;-49
2022/11/13 08:54:02;;;;;;;;;;;21.60;43.90;;;;;;484626;246;1376;-48
2022/11/13 08:56:03;;;;;;;;;;;21.50;43.90;;;;;;484439;246;1258;-49
2022/11/13 08:58:05;;;;;;;;;;;21.50;44.00;;;;;;484392;246;1797;-48
2022/11/13 09:00:06;;;;;;;;;;;21.50;44.00;;;;;;484411;246;2203;-49
2022/11/13 09:02:07;;;;;;;;;;;21.50;44.00;;;;;;484671;246;1298;-49
2022/11/13 09:04:09;;;;;;;;;;;21.40;44.10;;;;;;484187;246;1326;-50
2022/11/13 09:06:10;;;;;;;;;;;21.50;44.10;;;;;;484113;246;1176;-49
2022/11/13 09:08:11;;;;;;;;;;;21.40;44.10;;;;;;484401;246;1302;-49
2022/11/13 09:10:13;;;;;;;;;;;21.40;44.10;;;;;;484598;246;1238;-49
2022/11/13 09:12:14;;;;;;;;;;;21.40;44.20;;;;;;484228;246;1236;-49
2022/11/13 09:14:15;;;;;;;;;;;21.40;44.10;;;;;;484505;246;1395;-49
2022/11/13 09:16:17;;;;;;;;;;;21.40;44.10;;;;;;484465;246;1262;-49
2022/11/13 09:18:18;;;;;;;;;;;21.40;44.10;;;;;;484172;246;1282;-49
2022/11/13 09:20:19;;;;;;;;;;;21.40;44.10;;;;;;484564;246;2188;-49
2022/11/13 09:22:21;;;;;;;;;;;21.40;44.10;;;;;;484668;246;1852;-50
2022/11/13 09:24:22;;;;;;;;;;;21.40;44.10;;;;;;484400;246;1290;-49
2022/11/13 09:26:23;;;;;;;;;;;21.40;44.10;;;;;;484188;246;1322;-49
2022/11/13 09:28:25;;;;;;;;;;;21.50;44.20;;;;;;484198;246;1224;-49
2022/11/13 09:30:26;;;;;;;;;;;21.40;44.20;;;;;;484249;246;1467;-49
2022/11/13 09:32:27;;;;;;;;;;;21.40;44.20;;;;;;484679;246;1242;-50
2022/11/13 09:34:29;;;;;;;;;;;21.40;44.10;;;;;;484653;246;1309;-49
2022/11/13 09:36:30;;;;;;;;;;;21.40;44.10;;;;;;484673;246;1308;-49
2022/11/13 09:38:32;;;;;;;;;;;21.40;44.10;;;;;;484205;246;1292;-49
2022/11/13 09:40:33;;;;;;;;;;;21.40;44.20;;;;;;484655;246;2195;-49
2022/11/13 09:42:34;;;;;;;;;;;21.40;44.20;;;;;;484233;246;1212;-49
2022/11/13 09:44:37;;;;;;;;;;;21.40;44.20;;;;;;484237;246;1279;-49
2022/11/13 09:46:37;;;;;;;;;;;21.40;44.20;;;;;;484175;246;1938;-50
2022/11/13 09:48:38;;;;;;;;;;;21.40;44.10;;;;;;484371;246;1221;-49
2022/11/13 09:50:40;;;;;;;;;;;21.40;44.10;;;;;;484213;246;1239;-49
2022/11/13 09:52:41;;;;;;;;;;;21.40;44.10;;;;;;484207;246;1222;-49
2022/11/13 09:54:42;;;;;;;;;;;21.40;44.10;;;;;;484187;246;1226;-50
2022/11/13 09:56:44;;;;;;;;;;;21.50;44.10;;;;;;484467;246;1192;-49
2022/11/13 09:58:45;;;;;;;;;;;21.50;44.10;;;;;;484646;246;2140;-49
2022/11/13 10:00:46;;;;;;;;;;;21.40;44.00;;;;;;484693;246;1190;-49
2022/11/13 10:02:48;;;;;;;;;;;21.40;44.00;;;;;;484664;246;1556;-49
2022/11/13 10:04:49;;;;;;;;;;;21.40;44.00;;;;;;484402;246;1223;-49
2022/11/13 10:06:50;;;;;;;;;;;21.40;44.10;;;;;;484686;246;1184;-50
2022/11/13 10:08:51;;;;;;;;;;;21.50;44.00;;;;;;484422;246;1203;-49
2022/11/13 10:10:53;;;;;;;;;;;21.40;44.00;;;;;;484202;246;1223;-49
2022/11/13 10:12:54;;;;;;;;;;;21.40;44.00;;;;;;484190;246;1213;-49
2022/11/13 10:14:56;;;;;;;;;;;21.50;44.00;;;;;;484199;246;1208;-49
2022/11/13 10:16:57;;;;;;;;;;;21.40;44.00;;;;;;484635;246;1219;-50
2022/11/13 10:18:58;;;;;;;;;;;21.40;44.00;;;;;;484121;246;2196;-50
2022/11/13 10:21:00;;;;;;;;;;;21.50;44.00;;;;;;484603;246;1316;-49
2022/11/13 10:23:01;;;;;;;;;;;21.50;44.00;;;;;;484200;246;1528;-50
2022/11/13 10:25:02;;;;;;;;;;;21.50;44.00;;;;;;484316;246;1423;-49
2022/11/13 10:27:03;;;;;;;;;;;21.50;43.90;;;;;;484416;246;1215;-49
2022/11/13 10:29:05;;;;;;;;;;;21.50;44.00;;;;;;484386;246;1226;-49
2022/11/13 10:31:06;;;;;;;;;;;21.50;44.00;;;;;;484200;246;1210;-49
2022/11/13 10:33:07;;;;;;;;;;;21.40;43.90;;;;;;484567;246;1387;-49
2022/11/13 10:35:09;;;;;;;;;;;21.50;44.00;;;;;;484178;246;1257;-50
2022/11/13 10:37:11;;;;;;;;;;;21.70;43.80;;;;;;484613;246;1342;-50
2022/11/13 10:39:11;;;;;;;;;;;21.80;43.40;;;;;;484173;246;2188;-50
2022/11/13 10:41:13;;;;;;;;;;;21.90;43.20;;;;;;484639;246;1211;-49
2022/11/13 10:43:14;;;;;;;;;;;21.90;43.20;;;;;;484188;246;1242;-50
2022/11/13 10:45:16;;;;;;;;;;;21.80;43.30;;;;;;484328;246;1228;-49
2022/11/13 10:47:17;;;;;;;;;;;21.70;43.40;;;;;;484398;246;1549;-49
2022/11/13 10:49:18;;;;;;;;;;;21.70;43.50;;;;;;484166;246;1640;-49
2022/11/13 10:51:19;;;;;;;;;;;21.70;43.60;;;;;;484411;246;1221;-49
2022/11/13 10:53:21;;;;;;;;;;;21.60;43.70;;;;;;484513;246;1506;-49
2022/11/13 10:55:22;;;;;;;;;;;21.60;43.80;;;;;;484169;246;1221;-50
2022/11/13 10:57:24;;;;;;;;;;;21.50;43.90;;;;;;484377;246;1372;-49
2022/11/13 10:59:25;;;;;;;;;;;21.50;43.90;;;;;;484416;246;2196;-49
2022/11/13 11:01:27;;;;;;;;;;;21.70;43.80;;;;;;484222;246;1258;-50
2022/11/13 11:03:29;;;;;;;;;;;21.80;43.40;;;;;;484274;246;1211;-49
2022/11/13 11:05:30;;;;;;;;;;;21.90;43.20;;;;;;484462;246;1253;-49
2022/11/13 11:07:31;;;;;;;;;;;21.90;43.30;;;;;;484212;246;1212;-49
2022/11/13 11:09:33;;;;;;;;;;;21.80;43.30;;;;;;484607;246;1302;-49
2022/11/13 11:13:53;;;;;;;;;;;21.70;43.60;;;;;;484174;246;1427;-50
2022/11/13 11:15:54;;;;;;;;;;;21.60;43.70;;;;;;484660;246;1277;-50
2022/11/13 11:17:55;;;;;;;;;;;21.60;43.80;;;;;;484688;246;1400;-49
2022/11/13 11:19:57;;;;;;;;;;;21.50;43.80;;;;;;484173;246;2168;-50
2022/11/13 11:21:58;;;;;;;;;;;21.50;43.90;;;;;;484681;246;1212;-49
2022/11/13 11:23:59;;;;;;;;;;;21.50;43.90;;;;;;484211;246;1220;-49
2022/11/13 11:26:01;;;;;;;;;;;21.50;43.90;;;;;;484475;246;1305;-49
2022/11/13 11:28:02;;;;;;;;;;;21.50;44.00;;;;;;484173;246;1191;-49
2022/11/13 11:30:04;;;;;;;;;;;21.50;43.90;;;;;;484241;246;1104;-49
2022/11/13 11:32:05;;;;;;;;;;;21.50;44.00;;;;;;484241;246;1085;-49
2022/11/13 11:34:06;;;;;;;;;;;21.50;43.90;;;;;;484691;246;1123;-49
2022/11/13 11:36:08;;;;;;;;;;;21.50;44.00;;;;;;484692;246;1199;-49
2022/11/13 11:38:09;;;;;;;;;;;21.50;43.90;;;;;;484682;246;1159;-50
2022/11/13 11:40:10;;;;;;;;;;;21.50;43.90;;;;;;484460;246;2184;-50
2022/11/13 11:42:12;;;;;;;;;;;21.50;43.90;;;;;;484172;246;1197;-50
2022/11/13 11:44:13;;;;;;;;;;;21.60;43.80;;;;;;484589;246;1475;-49
2022/11/13 11:46:14;;;;;;;;;;;21.80;43.40;;;;;;484211;246;1293;-50
2022/11/13 11:48:16;;;;;;;;;;;21.90;43.20;;;;;;484362;246;1368;-50
2022/11/13 11:50:17;;;;;;;;;;;21.90;43.20;;;;;;484619;246;1436;-49
2022/11/13 11:52:18;;;;;;;;;;;21.80;43.20;;;;;;484613;246;1237;-50
2022/11/13 11:54:20;;;;;;;;;;;21.80;43.40;;;;;;484615;246;1453;-49
2022/11/13 11:56:22;;;;;;;;;;;21.70;43.50;;;;;;484595;246;1299;-49
2022/11/13 11:58:23;;;;;;;;;;;21.70;43.60;;;;;;484244;246;2081;-49
2022/11/13 12:00:24;;;;;;;;;;;21.60;43.70;;;;;;484235;246;2164;-49
2022/11/13 12:02:25;;;;;;;;;;;21.60;43.70;;;;;;484181;246;1248;-49